createdAt,value
2019-04-03T00:03:14.704Z,6.40
2019-04-03T00:08:16.353Z,7.43
2019-04-03T00:13:17.897Z,5.90
2019-04-03T00:18:19.430Z,8.20
2019-04-03T00:23:22.364Z,11.13
2019-04-03T00:28:24.490Z,6.57
2019-04-03T00:33:26.007Z,6.20
2019-04-03T00:38:27.647Z,7.23
2019-04-03T00:43:29.319Z,6.07
2019-04-03T00:48:30.987Z,6.37
2019-04-03T00:53:32.523Z,7.27
2019-04-03T00:58:39.216Z,9.60
2019-04-03T01:03:41.454Z,5.07
2019-04-03T01:08:43.100Z,5.67
2019-04-03T01:13:44.796Z,11.03
2019-04-03T01:18:46.389Z,7.73
2019-04-03T01:23:47.919Z,6.60
2019-04-03T01:28:49.415Z,7.67
2019-04-03T01:33:51.123Z,7.10
2019-04-03T01:38:52.652Z,8.07
2019-04-03T01:43:54.454Z,6.87
2019-04-03T01:48:56.754Z,6.97
2019-04-03T01:54:02.370Z,7.20
2019-04-03T01:59:03.258Z,6.67
2019-04-03T02:04:05.243Z,8.00
2019-04-03T02:09:08.592Z,7.80
2019-04-03T02:14:10.251Z,9.23
2019-04-03T02:19:11.785Z,9.83
2019-04-03T02:24:13.356Z,9.13
2019-04-03T02:29:14.978Z,10.13
2019-04-03T02:34:16.829Z,9.97
2019-04-03T02:39:18.386Z,10.63
2019-04-03T02:44:20.118Z,12.37
2019-04-03T02:49:22.293Z,11.27
2019-04-03T02:54:28.848Z,12.60
2019-04-03T02:59:30.434Z,10.67
2019-04-03T03:04:32.048Z,12.10
2019-04-03T03:09:33.891Z,9.50
2019-04-03T03:14:38.137Z,8.47
2019-04-03T03:19:39.348Z,10.33
2019-04-03T03:24:42.138Z,10.17
2019-04-03T03:29:44.124Z,9.90
2019-04-03T03:34:56.856Z,9.53
2019-04-03T03:39:50.658Z,9.43
2019-04-03T03:44:53.103Z,11.30
2019-04-03T03:49:55.101Z,12.80
2019-04-03T03:54:57.024Z,12.00
2019-04-03T03:59:59.142Z,9.33
2019-04-03T04:05:01.609Z,10.17
2019-04-03T04:10:04.382Z,9.00
2019-04-03T04:15:06.482Z,12.40
2019-04-03T04:20:08.502Z,11.17
2019-04-03T04:25:10.227Z,11.97
2019-04-03T04:30:14.358Z,10.87
2019-04-03T04:35:15.929Z,11.77
2019-04-03T04:40:17.460Z,12.83
2019-04-03T04:45:19.144Z,39.70
2019-04-03T04:50:20.980Z,8.77
2019-04-03T04:55:22.684Z,13.00
2019-04-03T05:00:24.357Z,11.97
2019-04-03T05:05:27.192Z,16.60
2019-04-03T05:10:29.413Z,15.57
2019-04-03T05:15:31.204Z,12.50
2019-04-03T05:20:33.396Z,11.67
2019-04-03T05:25:34.918Z,15.00
2019-04-03T05:30:37.891Z,12.00
2019-04-03T05:35:39.992Z,11.90
2019-04-03T05:40:41.570Z,12.13
2019-04-03T05:45:43.206Z,12.53
2019-04-03T05:50:45.146Z,11.83
2019-04-03T05:55:46.761Z,12.47
2019-04-03T06:00:48.359Z,17.40
2019-04-03T06:05:50.088Z,16.73
2019-04-03T06:10:51.897Z,14.60
2019-04-03T06:15:53.763Z,13.67
2019-04-03T06:20:55.810Z,15.90
2019-04-03T06:26:00.724Z,17.30
2019-04-03T06:31:01.046Z,16.23
2019-04-03T06:36:02.880Z,20.20
2019-04-03T06:41:04.437Z,18.90
2019-04-03T06:46:05.989Z,20.30
2019-04-03T06:51:08.263Z,17.60
2019-04-03T06:56:10.459Z,17.83
2019-04-03T07:01:12.638Z,25.03
2019-04-03T07:06:14.756Z,24.20
2019-04-03T07:11:23.174Z,22.03
2019-04-03T07:16:20.402Z,20.00
2019-04-03T07:21:22.729Z,21.57
2019-04-03T07:26:25.035Z,19.27
2019-04-03T07:31:26.672Z,17.97
2019-04-03T07:36:28.209Z,14.50
2019-04-03T07:41:29.767Z,16.90
2019-04-03T07:46:31.511Z,20.53
2019-04-03T07:51:34.734Z,15.87
2019-04-03T07:56:36.272Z,15.80
2019-04-03T08:01:40.323Z,15.23
2019-04-03T08:06:41.411Z,15.17
2019-04-03T08:11:42.935Z,13.87
2019-04-03T08:16:45.930Z,15.37
2019-04-03T08:21:48.322Z,17.23
2019-04-03T08:26:51.975Z,20.30
2019-04-03T08:31:53.673Z,14.83
2019-04-03T08:36:55.296Z,14.60
2019-04-03T08:41:57.288Z,17.53
2019-04-03T08:46:58.996Z,15.78
2019-04-03T08:52:00.539Z,15.98
2019-04-03T08:57:02.338Z,17.83
2019-04-03T09:02:03.999Z,16.67
2019-04-03T09:07:05.646Z,14.60
2019-04-03T09:12:07.995Z,15.23
2019-04-03T09:17:09.750Z,15.75
2019-04-03T09:22:11.809Z,14.43
2019-04-03T09:27:13.549Z,13.68
2019-04-03T09:32:15.081Z,15.18
2019-04-03T09:37:18.172Z,16.25
2019-04-03T09:42:21.338Z,15.78
2019-04-03T09:47:23.422Z,16.17
2019-04-03T09:52:37.378Z,13.30
2019-04-03T09:57:30.186Z,15.35
2019-04-03T10:02:32.064Z,14.90
2019-04-03T10:07:36.332Z,16.52
2019-04-03T10:12:37.224Z,15.05
2019-04-03T10:17:39.622Z,15.18
2019-04-03T10:22:41.706Z,15.43
2019-04-03T10:27:43.724Z,17.80
2019-04-03T10:32:45.704Z,16.62
2019-04-03T10:37:47.636Z,15.30
2019-04-03T10:42:49.342Z,19.45
2019-04-03T10:47:50.951Z,18.90
2019-04-03T10:52:52.572Z,17.67
2019-04-03T10:57:54.219Z,16.42
2019-04-03T11:02:56.265Z,16.82
2019-04-03T11:07:58.150Z,17.50
2019-04-03T11:13:00.896Z,18.32
2019-04-03T11:18:03.858Z,20.77
2019-04-03T11:23:08.160Z,19.82
2019-04-03T11:28:09.348Z,18.23
2019-04-03T11:33:13.423Z,16.27
2019-04-03T11:38:24.012Z,21.65
2019-04-03T11:43:18.084Z,14.55
2019-04-03T11:48:19.727Z,19.90
2019-04-03T11:53:21.633Z,14.68
2019-04-03T11:58:23.453Z,18.48
2019-04-03T12:03:25.253Z,13.80
2019-04-03T12:08:28.526Z,15.72
2019-04-03T12:13:30.769Z,15.83
2019-04-03T12:18:34.177Z,17.25
2019-04-03T12:23:38.780Z,16.45
2019-04-03T12:28:39.579Z,22.67
2019-04-03T12:33:52.008Z,20.85
2019-04-03T12:38:44.606Z,15.83
2019-04-03T12:43:46.161Z,15.25
2019-04-03T12:48:48.694Z,14.80
2019-04-03T12:53:51.373Z,14.68
2019-04-03T12:58:53.132Z,17.10
2019-04-03T13:03:56.415Z,15.55
2019-04-03T13:08:58.488Z,15.75
2019-04-03T13:14:00.376Z,15.32
2019-04-03T13:19:02.075Z,16.52
2019-04-03T13:24:04.195Z,14.95
2019-04-03T13:29:08.179Z,15.98
2019-04-03T13:34:11.167Z,14.95
2019-04-03T13:39:12.907Z,14.28
2019-04-03T13:44:33.959Z,13.15
2019-04-03T13:49:35.686Z,17.32
2019-04-03T13:54:37.241Z,15.43
2019-04-03T13:59:38.767Z,22.42
2019-04-03T14:04:40.318Z,17.17
2019-04-03T14:09:41.942Z,17.37
2019-04-03T14:14:46.777Z,16.77
2019-04-03T14:19:50.888Z,14.95
2019-04-03T14:24:52.573Z,16.57
2019-04-03T14:29:54.322Z,19.15
2019-04-03T14:35:05.218Z,13.25
2019-04-03T14:39:59.513Z,18.82
2019-04-03T14:45:01.351Z,17.90
2019-04-03T14:50:05.284Z,14.10
2019-04-03T14:55:17.684Z,18.17
2019-04-03T15:00:24.595Z,17.45
2019-04-03T15:05:14.955Z,17.70
2019-04-03T15:10:16.834Z,17.42
2019-04-03T15:15:18.518Z,18.25
2019-04-03T15:20:20.967Z,20.32
2019-04-03T15:25:22.666Z,16.25
2019-04-03T15:30:25.460Z,17.30
2019-04-03T15:35:27.810Z,18.73
2019-04-03T15:40:29.921Z,19.12
2019-04-03T15:45:32.040Z,16.05
2019-04-03T15:50:37.581Z,18.20
2019-04-03T15:55:39.038Z,21.68
2019-04-03T16:00:42.809Z,16.55
2019-04-03T16:05:44.424Z,16.70
2019-04-03T16:10:46.303Z,15.05
2019-04-03T16:15:47.861Z,16.65
2019-04-03T16:20:50.319Z,16.23
2019-04-03T16:25:52.425Z,16.62
2019-04-03T16:30:54.531Z,18.60
2019-04-03T16:35:56.217Z,15.45
2019-04-03T16:40:58.083Z,17.50
2019-04-03T16:45:59.941Z,20.37
2019-04-03T16:51:01.620Z,16.65
2019-04-03T16:56:05.881Z,16.45
2019-04-03T17:01:06.886Z,15.85
2019-04-03T17:06:08.454Z,20.05
2019-04-03T17:11:12.083Z,21.82
2019-04-03T17:16:15.088Z,17.00
2019-04-03T17:21:17.024Z,17.65
2019-04-03T17:26:18.586Z,15.48
2019-04-03T17:31:22.901Z,18.25
2019-04-03T17:36:23.599Z,18.82
2019-04-03T17:41:25.160Z,18.85
2019-04-03T17:46:26.716Z,23.25
2019-04-03T17:51:28.272Z,16.57
2019-04-03T17:56:29.830Z,19.50
2019-04-03T18:01:31.419Z,21.68
2019-04-03T18:06:32.968Z,20.05
2019-04-03T18:11:34.505Z,17.80
2019-04-03T18:16:36.065Z,14.73
2019-04-03T18:21:37.632Z,18.87
2019-04-03T18:26:39.179Z,17.47
2019-04-03T18:31:40.739Z,17.30
2019-04-03T18:36:42.278Z,15.87
2019-04-03T18:41:43.846Z,23.25
2019-04-03T18:46:45.406Z,21.80
2019-04-03T18:51:46.978Z,18.17
2019-04-03T18:56:48.529Z,19.25
2019-04-03T19:01:50.062Z,16.10
2019-04-03T19:06:51.743Z,16.47
2019-04-03T19:11:53.394Z,17.67
2019-04-03T19:16:54.958Z,16.10
2019-04-03T19:21:56.629Z,16.77
2019-04-03T19:26:58.174Z,16.60
2019-04-03T19:31:59.736Z,19.27
2019-04-03T19:37:03.605Z,20.50
2019-04-03T19:42:04.723Z,15.87
2019-04-03T19:47:06.261Z,17.30
2019-04-03T19:52:08.401Z,16.20
2019-04-03T19:57:10.063Z,19.00
2019-04-03T20:02:11.625Z,17.57
2019-04-03T20:07:13.264Z,21.63
2019-04-03T20:12:14.797Z,17.77
2019-04-03T20:17:16.332Z,16.23
2019-04-03T20:22:17.917Z,17.37
2019-04-03T20:27:19.473Z,20.00
2019-04-03T20:32:21.217Z,13.10
2019-04-03T20:37:25.745Z,15.33
2019-04-03T20:42:27.033Z,16.03
2019-04-03T20:47:28.566Z,14.40
2019-04-03T20:52:30.111Z,18.40
2019-04-03T20:57:33.344Z,14.97
2019-04-03T21:02:35.096Z,16.87
2019-04-03T21:07:36.631Z,19.43
2019-04-03T21:12:38.178Z,17.50
2019-04-03T21:17:39.819Z,15.77
2019-04-03T21:22:41.430Z,20.60
2019-04-03T21:27:42.971Z,19.83
2019-04-03T21:32:44.520Z,17.30
2019-04-03T21:37:46.060Z,18.40
2019-04-03T21:42:47.598Z,19.13
2019-04-03T21:47:49.148Z,14.43
2019-04-03T21:52:53.574Z,17.63
2019-04-03T21:57:54.144Z,16.50
2019-04-03T22:02:55.689Z,15.53
2019-04-03T22:07:58.259Z,16.13
2019-04-03T22:13:00.571Z,15.33
2019-04-03T22:18:02.375Z,15.77
2019-04-03T22:23:04.788Z,19.33
2019-04-03T22:28:07.133Z,21.20
2019-04-03T22:33:08.897Z,17.33
2019-04-03T22:38:10.569Z,22.47
2019-04-03T22:43:15.349Z,18.57
2019-04-03T22:48:15.859Z,18.20
2019-04-03T22:53:17.411Z,17.33
2019-04-03T22:58:21.058Z,13.20
2019-04-03T23:03:22.511Z,15.37
2019-04-03T23:08:24.178Z,18.23
2019-04-03T23:13:25.735Z,16.10
2019-04-03T23:18:27.313Z,17.83
2019-04-03T23:23:28.969Z,21.13
2019-04-03T23:28:33.606Z,15.83
2019-04-03T23:33:34.274Z,17.07
2019-04-03T23:38:35.824Z,22.20
2019-04-03T23:43:39.258Z,18.60
2019-04-03T23:48:41.086Z,14.20
2019-04-03T23:53:42.650Z,18.73
2019-04-03T23:58:44.191Z,22.77
